createdAt,value
2019-01-25T00:04:35.405Z,25.07
2019-01-25T00:09:43.782Z,25.51
2019-01-25T00:14:53.506Z,25.33
2019-01-25T00:20:01.880Z,25.98
2019-01-25T00:25:10.756Z,25.30
2019-01-25T00:30:19.149Z,26.42
2019-01-25T00:35:27.824Z,26.69
2019-01-25T00:40:36.144Z,27.42
2019-01-25T00:45:45.134Z,26.70
2019-01-25T00:50:53.597Z,26.18
2019-01-25T00:56:02.008Z,27.55
2019-01-25T01:01:10.918Z,23.76
2019-01-25T01:06:19.350Z,22.74
2019-01-25T01:11:28.041Z,21.52
2019-01-25T01:16:36.821Z,22.16
2019-01-25T01:21:45.510Z,20.81
2019-01-25T01:26:53.947Z,23.04
2019-01-25T01:32:02.760Z,23.05
2019-01-25T01:37:11.239Z,22.42
2019-01-25T01:42:19.843Z,21.96
2019-01-25T01:47:28.221Z,22.39
2019-01-25T01:52:36.912Z,21.66
2019-01-25T01:57:45.337Z,21.42
2019-01-25T02:02:54.242Z,22.14
2019-01-25T02:08:02.695Z,21.55
2019-01-25T02:13:12.424Z,22.32
2019-01-25T02:18:20.805Z,21.24
2019-01-25T02:23:29.595Z,21.31
2019-01-25T02:28:38.017Z,22.95
2019-01-25T02:33:46.634Z,21.96
2019-01-25T02:38:55.049Z,23.11
2019-01-25T02:44:03.672Z,24.98
2019-01-25T02:49:12.143Z,23.91
2019-01-25T02:54:20.931Z,24.32
2019-01-25T02:59:29.375Z,23.76
2019-01-25T03:04:38.488Z,22.98
2019-01-25T03:09:47.003Z,22.74
2019-01-25T03:14:55.329Z,24.24
2019-01-25T03:20:03.737Z,24.43
2019-01-25T03:25:12.354Z,25.33
2019-01-25T03:30:20.773Z,25.74
2019-01-25T03:35:29.761Z,25.10
2019-01-25T03:40:38.165Z,26.78
2019-01-25T03:45:46.951Z,26.39
2019-01-25T03:50:55.739Z,26.02
2019-01-25T03:56:04.414Z,27.09
2019-01-25T04:01:12.847Z,25.75
2019-01-25T04:06:21.702Z,26.54
2019-01-25T04:11:30.188Z,26.08
2019-01-25T04:16:38.974Z,26.69
2019-01-25T04:21:47.756Z,25.69
2019-01-25T04:26:57.003Z,26.64
2019-01-25T04:32:05.448Z,26.53
2019-01-25T04:37:14.385Z,26.81
2019-01-25T04:42:23.114Z,26.48
2019-01-25T04:47:31.894Z,26.84
2019-01-25T04:52:40.451Z,27.16
2019-01-25T04:57:49.329Z,27.05
2019-01-25T05:02:57.909Z,27.15
2019-01-25T05:08:06.973Z,28.89
2019-01-25T05:13:15.401Z,28.11
2019-01-25T05:18:24.226Z,29.19
2019-01-25T05:23:32.989Z,29.86
2019-01-25T05:28:41.512Z,29.64
2019-01-25T05:33:48.936Z,29.87
2019-01-25T05:38:57.397Z,29.23
2019-01-25T05:44:06.288Z,30.59
2019-01-25T05:49:15.936Z,31.13
2019-01-25T05:54:24.747Z,30.68
2019-01-25T05:59:33.194Z,30.61
2019-01-25T06:04:43.446Z,30.02
2019-01-25T06:09:41.820Z,31.31
2019-01-25T06:14:50.379Z,31.22
2019-01-25T06:19:59.273Z,31.70
2019-01-25T06:25:08.019Z,31.27
2019-01-25T06:30:19.750Z,31.40
2019-01-25T06:35:22.780Z,31.79
2019-01-25T06:40:21.214Z,31.60
2019-01-25T06:45:29.879Z,29.90
2019-01-25T06:50:39.846Z,30.73
2019-01-25T06:55:48.314Z,30.97
2019-01-25T07:00:59.187Z,31.02
2019-01-25T07:05:58.750Z,31.49
2019-01-25T07:11:07.349Z,31.69
2019-01-25T07:16:19.426Z,31.59
2019-01-25T07:21:20.615Z,32.65
2019-01-25T07:26:19.242Z,32.15
2019-01-25T07:31:31.153Z,32.04
2019-01-25T07:36:29.848Z,33.39
2019-01-25T07:41:38.648Z,32.41
2019-01-25T07:46:47.449Z,33.30
2019-01-25T07:51:55.912Z,33.00
2019-01-25T07:57:04.342Z,33.46
2019-01-25T08:02:13.061Z,32.17
2019-01-25T08:07:21.429Z,32.58
2019-01-25T08:12:31.179Z,33.44
2019-01-25T08:13:45.321Z,39.17
2019-01-25T08:18:53.903Z,35.17
2019-01-25T08:24:02.665Z,34.16
2019-01-25T08:29:16.006Z,35.44
2019-01-25T08:34:22.154Z,34.78
2019-01-25T08:39:23.595Z,36.78
2019-01-25T08:44:22.519Z,36.30
2019-01-25T08:49:32.422Z,37.57
2019-01-25T08:54:41.255Z,37.51
2019-01-25T08:59:49.762Z,37.35
2019-01-25T09:04:58.332Z,38.21
2019-01-25T09:10:06.775Z,37.98
2019-01-25T09:15:14.190Z,39.78
2019-01-25T09:20:22.519Z,38.22
2019-01-25T09:25:31.372Z,38.86
2019-01-25T09:30:39.845Z,37.61
2019-01-25T09:35:48.593Z,38.27
2019-01-25T09:40:57.060Z,37.05
2019-01-25T09:46:05.738Z,37.44
2019-01-25T09:51:14.111Z,37.58
2019-01-25T09:56:22.862Z,38.05
2019-01-25T10:01:30.104Z,38.60
2019-01-25T10:06:51.884Z,39.00
2019-01-25T10:11:40.324Z,37.21
2019-01-25T10:16:48.838Z,38.98
2019-01-25T10:21:57.684Z,38.59
2019-01-25T10:27:06.105Z,39.06
2019-01-25T10:32:14.860Z,37.49
2019-01-25T10:37:23.365Z,38.73
2019-01-25T10:42:32.345Z,39.42
2019-01-25T10:47:40.853Z,39.24
2019-01-25T10:52:49.931Z,38.88
2019-01-25T10:57:58.252Z,40.64
2019-01-25T11:03:07.092Z,40.55
2019-01-25T11:08:14.116Z,40.08
2019-01-25T11:13:22.961Z,41.06
2019-01-25T11:18:31.497Z,39.24
2019-01-25T11:23:40.817Z,39.26
2019-01-25T11:28:49.246Z,40.02
2019-01-25T11:33:58.090Z,40.93
2019-01-25T11:39:06.513Z,40.70
2019-01-25T11:44:13.872Z,39.57
2019-01-25T11:49:22.266Z,39.90
2019-01-25T11:54:32.180Z,42.46
2019-01-25T11:59:40.589Z,40.63
2019-01-25T12:04:49.494Z,40.89
2019-01-25T12:09:57.960Z,40.31
2019-01-25T12:15:06.853Z,40.62
2019-01-25T12:20:15.296Z,39.72
2019-01-25T12:25:24.031Z,41.04
2019-01-25T12:30:31.047Z,40.88
2019-01-25T12:35:39.873Z,40.26
2019-01-25T12:40:46.869Z,39.76
2019-01-25T12:45:56.044Z,40.76
2019-01-25T12:51:04.368Z,41.41
2019-01-25T12:56:13.178Z,42.78
2019-01-25T13:01:21.835Z,41.26
2019-01-25T13:06:36.621Z,40.38
2019-01-25T13:11:35.014Z,43.04
2019-01-25T13:16:43.492Z,40.74
2019-01-25T13:21:52.486Z,41.88
2019-01-25T13:27:01.725Z,41.39
2019-01-25T13:32:14.613Z,41.44
2019-01-25T13:37:10.452Z,41.17
2019-01-25T13:42:19.259Z,41.16
2019-01-25T13:47:28.097Z,39.92
2019-01-25T13:52:36.768Z,42.41
2019-01-25T13:57:46.140Z,39.45
2019-01-25T14:02:54.640Z,39.54
2019-01-25T14:08:03.218Z,41.35
2019-01-25T14:13:11.694Z,40.13
2019-01-25T14:18:20.578Z,40.12
2019-01-25T14:23:29.044Z,38.65
2019-01-25T14:28:38.040Z,40.02
2019-01-25T14:33:46.428Z,40.40
2019-01-25T14:38:55.449Z,39.71
2019-01-25T14:44:04.044Z,39.81
2019-01-25T14:49:12.990Z,40.58
2019-01-25T14:54:21.478Z,39.88
2019-01-25T14:59:32.537Z,38.60
2019-01-25T15:04:31.055Z,38.07
2019-01-25T15:09:39.565Z,37.73
2019-01-25T15:14:48.637Z,37.62
2019-01-25T15:19:57.223Z,36.79
2019-01-25T15:25:05.018Z,36.48
2019-01-25T15:30:13.642Z,36.38
2019-01-25T15:35:21.144Z,35.01
2019-01-25T15:40:29.566Z,35.71
2019-01-25T15:45:38.593Z,34.58
2019-01-25T15:50:47.205Z,34.03
2019-01-25T15:55:58.385Z,33.06
2019-01-25T16:00:57.167Z,32.18
2019-01-25T16:06:08.116Z,33.14
2019-01-25T16:11:06.609Z,32.69
2019-01-25T16:16:15.119Z,30.92
2019-01-25T16:21:25.330Z,30.94
2019-01-25T16:26:23.740Z,29.80
2019-01-25T16:31:32.129Z,30.22
2019-01-25T16:36:42.066Z,28.92
2019-01-25T16:41:50.492Z,27.04
2019-01-25T16:46:59.006Z,23.89
2019-01-25T16:52:11.610Z,20.33
2019-01-25T16:57:10.367Z,16.26
2019-01-25T17:02:17.419Z,15.20
2019-01-25T17:07:26.262Z,14.37
2019-01-25T17:12:34.812Z,12.91
2019-01-25T17:17:52.315Z,13.61
2019-01-25T17:23:03.081Z,12.78
2019-01-25T17:27:53.793Z,12.71
2019-01-25T17:32:52.161Z,14.09
2019-01-25T17:38:05.406Z,14.77
2019-01-25T17:43:04.054Z,15.11
2019-01-25T17:48:12.557Z,16.63
2019-01-25T17:53:21.020Z,18.13
2019-01-25T17:58:28.549Z,20.44
2019-01-25T18:03:40.589Z,19.71
2019-01-25T18:08:39.145Z,20.66
2019-01-25T18:13:48.137Z,19.84
2019-01-25T18:18:57.432Z,20.88
2019-01-25T18:24:06.148Z,21.10
2019-01-25T18:29:14.961Z,21.41
2019-01-25T18:34:23.446Z,21.87
2019-01-25T18:39:30.755Z,21.62
2019-01-25T18:44:39.839Z,21.67
2019-01-25T18:49:54.464Z,22.54
2019-01-25T18:54:53.052Z,24.47
2019-01-25T19:00:06.481Z,23.84
2019-01-25T19:05:05.082Z,23.10
2019-01-25T19:10:13.693Z,23.25
2019-01-25T19:15:34.385Z,23.08
2019-01-25T19:20:22.872Z,22.70
2019-01-25T19:25:31.296Z,22.98
2019-01-25T19:30:40.424Z,23.39
2019-01-25T19:35:48.927Z,21.70
2019-01-25T19:40:57.469Z,23.82
2019-01-25T19:46:05.973Z,24.00
2019-01-25T19:51:14.571Z,23.22
2019-01-25T19:56:24.167Z,24.38
2019-01-25T20:01:33.934Z,25.71
2019-01-25T20:06:40.976Z,26.67
2019-01-25T20:11:50.249Z,27.64
2019-01-25T20:16:58.770Z,26.96
2019-01-25T20:22:07.711Z,27.95
2019-01-25T20:27:19.146Z,27.74
2019-01-25T20:32:18.229Z,27.93
2019-01-25T20:37:26.719Z,27.48
2019-01-25T20:42:35.617Z,27.44
2019-01-25T20:47:44.069Z,27.88
2019-01-25T20:52:54.485Z,27.09
2019-01-25T20:57:52.972Z,26.31
2019-01-25T21:03:02.830Z,27.09
2019-01-25T21:08:10.816Z,26.22
2019-01-25T21:13:19.845Z,26.24
2019-01-25T21:18:28.281Z,26.18
2019-01-25T21:23:39.498Z,26.48
2019-01-25T21:28:37.889Z,25.84
2019-01-25T21:33:46.820Z,25.88
2019-01-25T21:38:53.981Z,24.86
2019-01-25T21:44:02.554Z,24.08
2019-01-25T21:49:11.125Z,25.43
2019-01-25T21:54:20.049Z,24.93
2019-01-25T21:59:28.430Z,24.53
2019-01-25T22:04:37.419Z,24.08
2019-01-25T22:09:46.152Z,25.03
2019-01-25T22:14:55.486Z,25.23
2019-01-25T22:20:04.010Z,24.55
2019-01-25T22:25:13.813Z,25.07
2019-01-25T22:30:22.288Z,23.74
2019-01-25T22:35:30.961Z,22.79
2019-01-25T22:40:39.355Z,23.42
2019-01-25T22:45:49.149Z,23.53
2019-01-25T22:50:57.820Z,23.17
2019-01-25T22:56:06.328Z,22.18
2019-01-25T23:01:14.871Z,22.68
2019-01-25T23:06:23.814Z,22.92
2019-01-25T23:11:30.841Z,22.88
2019-01-25T23:16:39.680Z,22.24
2019-01-25T23:21:48.205Z,22.18
2019-01-25T23:26:55.769Z,22.28
2019-01-25T23:32:04.351Z,23.11
2019-01-25T23:37:13.612Z,22.30
2019-01-25T23:42:22.373Z,22.78
2019-01-25T23:47:37.314Z,22.34
2019-01-25T23:52:35.904Z,21.30
2019-01-25T23:57:44.475Z,21.20
